sensor_id;sensor_type;location;lat;lon;timestamp;pressure;altitude;pressure_sealevel;temperature;humidity
47260;BME280;32999;52.412;4.890;2023-02-01T00:49:59;101902.34;;;7.23;100.00
47260;BME280;32999;52.412;4.890;2023-02-01T01:01:59;101893.81;;;7.48;100.00
47260;BME280;32999;52.412;4.890;2023-02-01T01:12:58;101894.53;;;7.31;100.00
47260;BME280;32999;52.412;4.890;2023-02-01T01:36:05;101908.94;;;7.58;100.00
47260;BME280;32999;52.412;4.890;2023-02-01T02:00:07;101871.09;;;7.73;100.00
47260;BME280;32999;52.412;4.890;2023-02-01T02:05:35;101881.63;;;7.56;100.00
47260;BME280;32999;52.412;4.890;2023-02-01T02:11:14;101868.63;;;7.62;100.00
47260;BME280;32999;52.412;4.890;2023-02-01T02:41:35;101820.31;;;7.47;100.00
47260;BME280;32999;52.412;4.890;2023-02-01T03:40:15;101790.81;;;7.31;100.00
47260;BME280;32999;52.412;4.890;2023-02-01T04:20:52;101821.75;;;7.23;100.00
47260;BME280;32999;52.412;4.890;2023-02-01T04:38:50;101810.81;;;7.35;100.00
47260;BME280;32999;52.412;4.890;2023-02-01T04:44:36;101801.44;;;7.31;100.00
47260;BME280;32999;52.412;4.890;2023-02-01T04:55:48;101809.16;;;7.34;100.00
47260;BME280;32999;52.412;4.890;2023-02-01T05:55:51;101823.47;;;7.80;100.00
47260;BME280;32999;52.412;4.890;2023-02-01T06:31:23;101827.34;;;6.91;100.00
47260;BME280;32999;52.412;4.890;2023-02-01T06:36:27;101793.72;;;6.70;100.00
47260;BME280;32999;52.412;4.890;2023-02-01T06:42:01;101824.56;;;7.11;100.00
47260;BME280;32999;52.412;4.890;2023-02-01T06:52:59;101820.19;;;7.01;100.00
47260;BME280;32999;52.412;4.890;2023-02-01T06:59:27;101791.50;;;6.95;100.00
47260;BME280;32999;52.412;4.890;2023-02-01T07:04:39;101828.03;;;7.02;100.00
47260;BME280;32999;52.412;4.890;2023-02-01T07:10:26;101826.19;;;6.93;100.00
47260;BME280;32999;52.412;4.890;2023-02-01T07:27:38;101783.69;;;6.64;100.00
47260;BME280;32999;52.412;4.890;2023-02-01T07:32:46;101839.66;;;7.01;100.00
47260;BME280;32999;52.412;4.890;2023-02-01T07:38:25;101838.94;;;6.90;100.00
47260;BME280;32999;52.412;4.890;2023-02-01T08:02:10;101793.75;;;6.99;100.00
47260;BME280;32999;52.412;4.890;2023-02-01T08:13:05;101839.22;;;7.25;100.00
47260;BME280;32999;52.412;4.890;2023-02-01T08:18:17;101836.44;;;7.36;100.00
47260;BME280;32999;52.412;4.890;2023-02-01T08:23:27;101749.41;;;7.09;100.00
47260;BME280;32999;52.412;4.890;2023-02-01T08:34:51;101821.22;;;7.85;100.00
47260;BME280;32999;52.412;4.890;2023-02-01T09:22:50;101785.97;;;7.73;100.00
47260;BME280;32999;52.412;4.890;2023-02-01T09:52:23;101811.09;;;7.42;100.00
47260;BME280;32999;52.412;4.890;2023-02-01T10:21:16;101800.19;;;7.35;100.00
47260;BME280;32999;52.412;4.890;2023-02-01T10:26:42;101812.47;;;7.46;100.00
47260;BME280;32999;52.412;4.890;2023-02-01T10:32:01;101810.78;;;7.55;100.00
47260;BME280;32999;52.412;4.890;2023-02-01T10:37:17;101808.84;;;7.57;100.00
47260;BME280;32999;52.412;4.890;2023-02-01T10:43:01;101801.22;;;7.71;100.00
47260;BME280;32999;52.412;4.890;2023-02-01T10:48:12;101810.66;;;7.56;100.00
47260;BME280;32999;52.412;4.890;2023-02-01T11:05:22;101798.34;;;7.92;100.00
47260;BME280;32999;52.412;4.890;2023-02-01T11:23:11;101783.72;;;7.78;100.00
47260;BME280;32999;52.412;4.890;2023-02-01T11:28:35;101791.97;;;7.85;100.00
47260;BME280;32999;52.412;4.890;2023-02-01T11:33:49;101791.88;;;8.04;100.00
47260;BME280;32999;52.412;4.890;2023-02-01T11:51:59;101780.06;;;8.44;100.00
47260;BME280;32999;52.412;4.890;2023-02-01T12:39:17;101749.09;;;9.14;100.00
47260;BME280;32999;52.412;4.890;2023-02-01T12:50:35;101745.59;;;8.96;100.00
47260;BME280;32999;52.412;4.890;2023-02-01T12:55:46;101740.56;;;9.10;100.00
47260;BME280;32999;52.412;4.890;2023-02-01T13:00:54;101660.66;;;8.57;100.00
47260;BME280;32999;52.412;4.890;2023-02-01T13:06:03;101654.69;;;8.28;100.00
47260;BME280;32999;52.412;4.890;2023-02-01T13:11:11;101758.94;;;9.13;100.00
47260;BME280;32999;52.412;4.890;2023-02-01T13:16:17;101752.31;;;9.00;100.00
47260;BME280;32999;52.412;4.890;2023-02-01T13:21:27;101758.44;;;9.36;100.00
47260;BME280;32999;52.412;4.890;2023-02-01T13:26:31;101751.44;;;9.61;100.00
47260;BME280;32999;52.412;4.890;2023-02-01T13:31:56;101766.69;;;9.50;100.00
47260;BME280;32999;52.412;4.890;2023-02-01T13:37:14;101685.28;;;9.46;100.00
47260;BME280;32999;52.412;4.890;2023-02-01T13:42:25;101658.59;;;9.46;100.00
47260;BME280;32999;52.412;4.890;2023-02-01T13:47:30;101600.09;;;9.19;100.00
47260;BME280;32999;52.412;4.890;2023-02-01T13:52:38;101749.72;;;9.85;100.00
47260;BME280;32999;52.412;4.890;2023-02-01T13:57:43;101738.88;;;9.87;100.00
47260;BME280;32999;52.412;4.890;2023-02-01T14:03:13;101717.41;;;9.63;100.00
47260;BME280;32999;52.412;4.890;2023-02-01T14:08:22;101739.88;;;9.86;100.00
47260;BME280;32999;52.412;4.890;2023-02-01T14:13:28;101646.91;;;9.39;100.00
47260;BME280;32999;52.412;4.890;2023-02-01T14:18:58;101753.34;;;9.76;100.00
47260;BME280;32999;52.412;4.890;2023-02-01T14:24:04;101724.47;;;9.20;100.00
47260;BME280;32999;52.412;4.890;2023-02-01T14:29:25;101695.63;;;8.27;100.00
47260;BME280;32999;52.412;4.890;2023-02-01T14:34:35;101789.13;;;8.51;100.00
47260;BME280;32999;52.412;4.890;2023-02-01T14:39:54;101788.38;;;8.41;100.00
47260;BME280;32999;52.412;4.890;2023-02-01T14:50:34;101782.50;;;8.28;100.00
47260;BME280;32999;52.412;4.890;2023-02-01T15:02:18;101797.59;;;8.09;100.00
47260;BME280;32999;52.412;4.890;2023-02-01T15:07:35;101740.16;;;7.70;100.00
47260;BME280;32999;52.412;4.890;2023-02-01T15:12:42;101798.31;;;8.11;100.00
47260;BME280;32999;52.412;4.890;2023-02-01T15:18:03;101827.09;;;8.26;100.00
47260;BME280;32999;52.412;4.890;2023-02-01T15:23:16;101815.63;;;8.52;100.00
47260;BME280;32999;52.412;4.890;2023-02-01T15:28:30;101800.59;;;8.24;100.00
47260;BME280;32999;52.412;4.890;2023-02-01T15:33:39;101786.56;;;8.04;100.00
47260;BME280;32999;52.412;4.890;2023-02-01T15:38:44;101825.97;;;8.38;100.00
47260;BME280;32999;52.412;4.890;2023-02-01T15:44:01;101818.66;;;8.30;100.00
47260;BME280;32999;52.412;4.890;2023-02-01T15:49:05;101830.69;;;8.44;100.00
47260;BME280;32999;52.412;4.890;2023-02-01T15:54:22;101818.75;;;8.48;100.00
47260;BME280;32999;52.412;4.890;2023-02-01T15:59:30;101818.28;;;8.52;100.00
47260;BME280;32999;52.412;4.890;2023-02-01T16:04:50;101818.53;;;8.59;100.00
47260;BME280;32999;52.412;4.890;2023-02-01T16:10:01;101821.59;;;8.64;100.00
47260;BME280;32999;52.412;4.890;2023-02-01T16:15:07;101786.69;;;8.40;100.00
47260;BME280;32999;52.412;4.890;2023-02-01T16:20:11;101843.91;;;8.63;100.00
47260;BME280;32999;52.412;4.890;2023-02-01T16:25:14;101820.53;;;8.57;100.00
47260;BME280;32999;52.412;4.890;2023-02-01T16:30:16;101867.56;;;8.66;100.00
47260;BME280;32999;52.412;4.890;2023-02-01T16:35:25;101877.06;;;8.78;100.00
47260;BME280;32999;52.412;4.890;2023-02-01T16:40:29;101889.00;;;8.74;100.00
47260;BME280;32999;52.412;4.890;2023-02-01T16:45:30;101861.66;;;8.72;100.00
47260;BME280;32999;52.412;4.890;2023-02-01T16:50:33;101868.63;;;8.56;100.00
47260;BME280;32999;52.412;4.890;2023-02-01T16:55:36;101881.22;;;8.63;100.00
47260;BME280;32999;52.412;4.890;2023-02-01T17:00:38;101896.50;;;8.61;100.00
47260;BME280;32999;52.412;4.890;2023-02-01T17:05:40;101792.03;;;7.93;100.00
47260;BME280;32999;52.412;4.890;2023-02-01T17:10:43;101878.00;;;8.60;100.00
47260;BME280;32999;52.412;4.890;2023-02-01T17:15:49;101895.25;;;8.65;100.00
47260;BME280;32999;52.412;4.890;2023-02-01T17:20:52;101799.84;;;8.14;100.00
47260;BME280;32999;52.412;4.890;2023-02-01T17:25:55;101882.78;;;8.56;100.00
47260;BME280;32999;52.412;4.890;2023-02-01T17:30:58;101900.00;;;8.89;100.00
47260;BME280;32999;52.412;4.890;2023-02-01T17:35:59;101926.78;;;8.33;100.00
47260;BME280;32999;52.412;4.890;2023-02-01T18:05:44;101938.75;;;7.80;100.00
47260;BME280;32999;52.412;4.890;2023-02-01T18:16:53;101935.34;;;7.98;100.00
47260;BME280;32999;52.412;4.890;2023-02-01T18:27:54;101896.16;;;7.90;100.00
47260;BME280;32999;52.412;4.890;2023-02-01T18:32:56;101960.38;;;8.43;100.00
47260;BME280;32999;52.412;4.890;2023-02-01T18:37:58;101955.78;;;8.36;100.00
47260;BME280;32999;52.412;4.890;2023-02-01T18:43:01;101835.72;;;7.63;100.00
47260;BME280;32999;52.412;4.890;2023-02-01T18:54:15;101961.66;;;8.30;100.00
47260;BME280;32999;52.412;4.890;2023-02-01T19:18:59;101970.22;;;8.33;100.00
47260;BME280;32999;52.412;4.890;2023-02-01T19:30:11;101942.31;;;8.28;100.00
47260;BME280;32999;52.412;4.890;2023-02-01T19:35:16;101887.72;;;8.04;100.00
47260;BME280;32999;52.412;4.890;2023-02-01T19:40:19;101961.84;;;8.65;100.00
47260;BME280;32999;52.412;4.890;2023-02-01T19:45:25;101964.41;;;8.57;100.00
47260;BME280;32999;52.412;4.890;2023-02-01T19:50:44;101980.25;;;8.49;100.00
47260;BME280;32999;52.412;4.890;2023-02-01T19:55:46;101944.28;;;8.26;100.00
47260;BME280;32999;52.412;4.890;2023-02-01T20:00:51;101986.13;;;8.62;100.00
47260;BME280;32999;52.412;4.890;2023-02-01T20:05:56;101898.16;;;8.25;100.00
47260;BME280;32999;52.412;4.890;2023-02-01T20:11:14;101992.72;;;8.58;100.00
47260;BME280;32999;52.412;4.890;2023-02-01T20:16:16;101994.69;;;8.66;100.00
47260;BME280;32999;52.412;4.890;2023-02-01T20:21:19;101889.09;;;8.08;100.00
47260;BME280;32999;52.412;4.890;2023-02-01T20:26:24;101962.19;;;8.43;100.00
47260;BME280;32999;52.412;4.890;2023-02-01T20:31:25;101929.84;;;8.18;100.00
47260;BME280;32999;52.412;4.890;2023-02-01T20:36:48;102018.75;;;8.74;100.00
47260;BME280;32999;52.412;4.890;2023-02-01T20:41:50;102019.31;;;8.77;100.00
47260;BME280;32999;52.412;4.890;2023-02-01T20:46:52;101985.72;;;8.57;100.00
47260;BME280;32999;52.412;4.890;2023-02-01T20:51:55;102033.03;;;8.82;100.00
47260;BME280;32999;52.412;4.890;2023-02-01T20:56:57;101922.13;;;8.35;100.00
47260;BME280;32999;52.412;4.890;2023-02-01T21:01:59;102024.63;;;8.77;100.00
47260;BME280;32999;52.412;4.890;2023-02-01T21:07:03;101969.44;;;8.60;100.00
47260;BME280;32999;52.412;4.890;2023-02-01T21:12:07;102016.50;;;8.79;100.00
47260;BME280;32999;52.412;4.890;2023-02-01T21:17:09;102001.97;;;8.64;100.00
47260;BME280;32999;52.412;4.890;2023-02-01T21:22:13;102055.47;;;8.90;100.00
47260;BME280;32999;52.412;4.890;2023-02-01T21:27:16;101988.03;;;8.79;100.00
47260;BME280;32999;52.412;4.890;2023-02-01T21:32:17;102017.38;;;9.07;100.00
47260;BME280;32999;52.412;4.890;2023-02-01T21:37:20;102046.19;;;8.94;100.00
47260;BME280;32999;52.412;4.890;2023-02-01T21:42:24;102044.22;;;8.96;100.00
47260;BME280;32999;52.412;4.890;2023-02-01T21:47:27;102062.44;;;9.00;100.00
47260;BME280;32999;52.412;4.890;2023-02-01T21:52:30;101972.19;;;8.41;100.00
47260;BME280;32999;52.412;4.890;2023-02-01T21:57:32;102069.25;;;8.85;100.00
47260;BME280;32999;52.412;4.890;2023-02-01T22:02:34;102073.81;;;8.93;100.00
47260;BME280;32999;52.412;4.890;2023-02-01T22:07:37;102072.75;;;8.85;100.00
47260;BME280;32999;52.412;4.890;2023-02-01T22:12:47;101989.97;;;8.31;100.00
47260;BME280;32999;52.412;4.890;2023-02-01T22:17:49;102077.94;;;8.77;100.00
47260;BME280;32999;52.412;4.890;2023-02-01T22:22:52;101988.28;;;8.30;100.00
47260;BME280;32999;52.412;4.890;2023-02-01T22:27:55;102083.28;;;8.77;100.00
47260;BME280;32999;52.412;4.890;2023-02-01T22:32:57;102052.41;;;8.75;100.00
47260;BME280;32999;52.412;4.890;2023-02-01T22:38:01;102090.56;;;8.75;100.00
47260;BME280;32999;52.412;4.890;2023-02-01T22:43:02;102079.97;;;8.56;100.00
47260;BME280;32999;52.412;4.890;2023-02-01T22:48:05;102037.19;;;8.29;100.00
47260;BME280;32999;52.412;4.890;2023-02-01T22:53:08;102094.69;;;8.60;100.00
47260;BME280;32999;52.412;4.890;2023-02-01T22:58:10;102050.38;;;8.30;100.00
47260;BME280;32999;52.412;4.890;2023-02-01T23:03:12;102123.69;;;8.82;100.00
47260;BME280;32999;52.412;4.890;2023-02-01T23:08:15;102114.56;;;8.75;100.00
47260;BME280;32999;52.412;4.890;2023-02-01T23:13:16;102112.31;;;8.80;100.00
47260;BME280;32999;52.412;4.890;2023-02-01T23:18:18;102025.84;;;8.27;100.00
47260;BME280;32999;52.412;4.890;2023-02-01T23:23:21;102075.75;;;8.63;100.00
47260;BME280;32999;52.412;4.890;2023-02-01T23:28:23;102127.16;;;8.93;100.00
47260;BME280;32999;52.412;4.890;2023-02-01T23:33:25;102123.69;;;8.82;100.00
47260;BME280;32999;52.412;4.890;2023-02-01T23:38:29;102119.16;;;8.93;100.00
47260;BME280;32999;52.412;4.890;2023-02-01T23:43:31;102118.16;;;8.94;100.00
47260;BME280;32999;52.412;4.890;2023-02-01T23:48:50;102123.06;;;8.98;100.00
47260;BME280;32999;52.412;4.890;2023-02-01T23:53:54;102115.50;;;8.94;100.00
47260;BME280;32999;52.412;4.890;2023-02-01T23:58:56;102088.66;;;8.58;100.00
